sensor_id;sensor_type;location;lat;lon;timestamp;P1;durP1;ratioP1;P2;durP2;ratioP2
41657;SDS011;27347;57.132;-2.084;2022-07-23T00:02:19;1.33;;;1.00;;
41657;SDS011;27347;57.132;-2.084;2022-07-23T00:04:44;2.08;;;1.10;;
41657;SDS011;27347;57.132;-2.084;2022-07-23T00:07:10;1.70;;;1.20;;
41657;SDS011;27347;57.132;-2.084;2022-07-23T00:09:35;2.05;;;1.13;;
41657;SDS011;27347;57.132;-2.084;2022-07-23T00:12:00;1.73;;;1.20;;
41657;SDS011;27347;57.132;-2.084;2022-07-23T00:14:26;2.42;;;1.10;;
41657;SDS011;27347;57.132;-2.084;2022-07-23T00:16:51;2.00;;;1.08;;
41657;SDS011;27347;57.132;-2.084;2022-07-23T00:19:17;0.75;;;0.75;;
41657;SDS011;27347;57.132;-2.084;2022-07-23T00:21:42;3.15;;;1.10;;
41657;SDS011;27347;57.132;-2.084;2022-07-23T00:24:07;1.10;;;1.00;;
41657;SDS011;27347;57.132;-2.084;2022-07-23T00:26:33;2.33;;;1.20;;
41657;SDS011;27347;57.132;-2.084;2022-07-23T00:28:58;2.78;;;1.17;;
41657;SDS011;27347;57.132;-2.084;2022-07-23T00:31:24;0.88;;;0.88;;
41657;SDS011;27347;57.132;-2.084;2022-07-23T00:33:49;3.63;;;1.17;;
41657;SDS011;27347;57.132;-2.084;2022-07-23T00:36:14;2.90;;;1.33;;
41657;SDS011;27347;57.132;-2.084;2022-07-23T00:38:40;1.35;;;1.02;;
41657;SDS011;27347;57.132;-2.084;2022-07-23T00:41:05;1.60;;;1.17;;
41657;SDS011;27347;57.132;-2.084;2022-07-23T00:43:31;1.80;;;1.00;;
41657;SDS011;27347;57.132;-2.084;2022-07-23T00:45:56;3.50;;;1.17;;
41657;SDS011;27347;57.132;-2.084;2022-07-23T00:48:22;1.45;;;0.98;;
41657;SDS011;27347;57.132;-2.084;2022-07-23T00:50:47;3.50;;;1.35;;
41657;SDS011;27347;57.132;-2.084;2022-07-23T00:53:13;3.03;;;1.50;;
41657;SDS011;27347;57.132;-2.084;2022-07-23T00:55:38;3.13;;;1.25;;
41657;SDS011;27347;57.132;-2.084;2022-07-23T00:58:04;2.22;;;1.10;;
41657;SDS011;27347;57.132;-2.084;2022-07-23T01:00:30;2.90;;;1.20;;
41657;SDS011;27347;57.132;-2.084;2022-07-23T01:02:55;2.70;;;1.40;;
41657;SDS011;27347;57.132;-2.084;2022-07-23T01:05:21;1.58;;;1.40;;
41657;SDS011;27347;57.132;-2.084;2022-07-23T01:07:50;1.88;;;1.17;;
41657;SDS011;27347;57.132;-2.084;2022-07-23T01:10:16;2.75;;;1.40;;
41657;SDS011;27347;57.132;-2.084;2022-07-23T01:12:57;2.40;;;1.40;;
41657;SDS011;27347;57.132;-2.084;2022-07-23T01:15:34;2.55;;;1.48;;
41657;SDS011;27347;57.132;-2.084;2022-07-23T01:18:00;1.40;;;1.30;;
41657;SDS011;27347;57.132;-2.084;2022-07-23T01:20:25;3.03;;;1.60;;
41657;SDS011;27347;57.132;-2.084;2022-07-23T01:22:51;3.38;;;1.65;;
41657;SDS011;27347;57.132;-2.084;2022-07-23T01:25:17;3.30;;;1.52;;
41657;SDS011;27347;57.132;-2.084;2022-07-23T01:27:43;4.78;;;2.17;;
41657;SDS011;27347;57.132;-2.084;2022-07-23T01:30:09;2.92;;;1.95;;
41657;SDS011;27347;57.132;-2.084;2022-07-23T01:32:34;5.22;;;2.45;;
41657;SDS011;27347;57.132;-2.084;2022-07-23T01:35:00;3.33;;;1.85;;
41657;SDS011;27347;57.132;-2.084;2022-07-23T01:37:25;3.75;;;2.08;;
41657;SDS011;27347;57.132;-2.084;2022-07-23T01:39:51;3.88;;;2.00;;
41657;SDS011;27347;57.132;-2.084;2022-07-23T01:42:16;5.30;;;2.53;;
41657;SDS011;27347;57.132;-2.084;2022-07-23T01:44:42;3.42;;;2.38;;
41657;SDS011;27347;57.132;-2.084;2022-07-23T01:47:07;3.58;;;2.08;;
41657;SDS011;27347;57.132;-2.084;2022-07-23T01:49:32;3.50;;;2.20;;
41657;SDS011;27347;57.132;-2.084;2022-07-23T01:51:58;4.97;;;2.55;;
41657;SDS011;27347;57.132;-2.084;2022-07-23T01:54:26;2.47;;;1.73;;
41657;SDS011;27347;57.132;-2.084;2022-07-23T01:56:52;8.65;;;2.22;;
41657;SDS011;27347;57.132;-2.084;2022-07-23T01:59:17;4.78;;;2.00;;
41657;SDS011;27347;57.132;-2.084;2022-07-23T02:01:43;2.00;;;1.80;;
41657;SDS011;27347;57.132;-2.084;2022-07-23T02:04:08;3.22;;;1.88;;
41657;SDS011;27347;57.132;-2.084;2022-07-23T02:06:34;4.85;;;1.98;;
41657;SDS011;27347;57.132;-2.084;2022-07-23T02:08:59;3.38;;;1.90;;
41657;SDS011;27347;57.132;-2.084;2022-07-23T02:11:24;3.25;;;1.70;;
41657;SDS011;27347;57.132;-2.084;2022-07-23T02:13:50;3.55;;;1.92;;
41657;SDS011;27347;57.132;-2.084;2022-07-23T02:16:15;2.88;;;1.92;;
41657;SDS011;27347;57.132;-2.084;2022-07-23T02:18:40;2.90;;;2.08;;
41657;SDS011;27347;57.132;-2.084;2022-07-23T02:21:06;5.15;;;1.90;;
41657;SDS011;27347;57.132;-2.084;2022-07-23T02:23:31;4.85;;;2.25;;
41657;SDS011;27347;57.132;-2.084;2022-07-23T02:25:56;3.60;;;1.63;;
41657;SDS011;27347;57.132;-2.084;2022-07-23T02:28:22;2.17;;;1.80;;
41657;SDS011;27347;57.132;-2.084;2022-07-23T02:30:47;4.45;;;1.77;;
41657;SDS011;27347;57.132;-2.084;2022-07-23T02:33:13;2.25;;;1.55;;
41657;SDS011;27347;57.132;-2.084;2022-07-23T02:35:38;2.63;;;1.58;;
41657;SDS011;27347;57.132;-2.084;2022-07-23T02:38:03;3.05;;;1.60;;
41657;SDS011;27347;57.132;-2.084;2022-07-23T02:40:29;4.03;;;1.77;;
41657;SDS011;27347;57.132;-2.084;2022-07-23T02:42:54;2.33;;;1.55;;
41657;SDS011;27347;57.132;-2.084;2022-07-23T02:45:20;2.55;;;1.52;;
41657;SDS011;27347;57.132;-2.084;2022-07-23T02:47:45;3.05;;;1.60;;
41657;SDS011;27347;57.132;-2.084;2022-07-23T02:50:10;2.95;;;1.60;;
41657;SDS011;27347;57.132;-2.084;2022-07-23T02:52:37;2.28;;;1.27;;
41657;SDS011;27347;57.132;-2.084;2022-07-23T02:55:02;1.33;;;1.25;;
41657;SDS011;27347;57.132;-2.084;2022-07-23T02:57:28;2.08;;;1.50;;
41657;SDS011;27347;57.132;-2.084;2022-07-23T02:59:53;2.58;;;1.45;;
41657;SDS011;27347;57.132;-2.084;2022-07-23T03:02:19;2.08;;;1.30;;
41657;SDS011;27347;57.132;-2.084;2022-07-23T03:04:44;2.70;;;1.58;;
41657;SDS011;27347;57.132;-2.084;2022-07-23T03:07:10;2.60;;;1.33;;
41657;SDS011;27347;57.132;-2.084;2022-07-23T03:09:35;3.35;;;1.70;;
41657;SDS011;27347;57.132;-2.084;2022-07-23T03:12:00;2.92;;;1.52;;
41657;SDS011;27347;57.132;-2.084;2022-07-23T03:14:26;1.80;;;1.60;;
41657;SDS011;27347;57.132;-2.084;2022-07-23T03:16:52;3.22;;;1.73;;
41657;SDS011;27347;57.132;-2.084;2022-07-23T03:19:19;5.72;;;1.75;;
41657;SDS011;27347;57.132;-2.084;2022-07-23T03:21:44;3.97;;;1.50;;
41657;SDS011;27347;57.132;-2.084;2022-07-23T03:24:10;3.35;;;1.60;;
41657;SDS011;27347;57.132;-2.084;2022-07-23T03:26:35;3.30;;;1.80;;
41657;SDS011;27347;57.132;-2.084;2022-07-23T03:29:02;3.47;;;1.73;;
41657;SDS011;27347;57.132;-2.084;2022-07-23T03:31:29;2.90;;;1.50;;
41657;SDS011;27347;57.132;-2.084;2022-07-23T03:33:56;2.90;;;1.80;;
41657;SDS011;27347;57.132;-2.084;2022-07-23T03:36:21;2.25;;;1.70;;
41657;SDS011;27347;57.132;-2.084;2022-07-23T03:38:47;1.65;;;1.35;;
41657;SDS011;27347;57.132;-2.084;2022-07-23T03:41:12;2.55;;;1.50;;
41657;SDS011;27347;57.132;-2.084;2022-07-23T03:43:37;2.10;;;1.40;;
41657;SDS011;27347;57.132;-2.084;2022-07-23T03:46:03;4.55;;;1.38;;
41657;SDS011;27347;57.132;-2.084;2022-07-23T03:48:28;1.67;;;1.35;;
41657;SDS011;27347;57.132;-2.084;2022-07-23T03:50:53;1.70;;;1.15;;
41657;SDS011;27347;57.132;-2.084;2022-07-23T03:53:19;1.40;;;1.27;;
41657;SDS011;27347;57.132;-2.084;2022-07-23T03:55:44;1.52;;;1.25;;
41657;SDS011;27347;57.132;-2.084;2022-07-23T03:58:10;2.58;;;1.35;;
41657;SDS011;27347;57.132;-2.084;2022-07-23T04:00:35;2.85;;;1.50;;
41657;SDS011;27347;57.132;-2.084;2022-07-23T04:03:00;3.83;;;1.35;;
41657;SDS011;27347;57.132;-2.084;2022-07-23T04:05:26;1.98;;;1.33;;
41657;SDS011;27347;57.132;-2.084;2022-07-23T04:07:51;1.73;;;1.25;;
41657;SDS011;27347;57.132;-2.084;2022-07-23T04:10:17;3.55;;;1.50;;
41657;SDS011;27347;57.132;-2.084;2022-07-23T04:12:42;1.35;;;1.20;;
41657;SDS011;27347;57.132;-2.084;2022-07-23T04:15:08;1.55;;;1.20;;
41657;SDS011;27347;57.132;-2.084;2022-07-23T04:17:33;2.55;;;1.30;;
41657;SDS011;27347;57.132;-2.084;2022-07-23T04:19:59;2.38;;;1.20;;
41657;SDS011;27347;57.132;-2.084;2022-07-23T04:22:24;1.70;;;1.60;;
41657;SDS011;27347;57.132;-2.084;2022-07-23T04:24:50;1.10;;;1.08;;
41657;SDS011;27347;57.132;-2.084;2022-07-23T04:27:15;2.90;;;1.30;;
41657;SDS011;27347;57.132;-2.084;2022-07-23T04:29:41;1.33;;;1.15;;
41657;SDS011;27347;57.132;-2.084;2022-07-23T04:32:06;2.03;;;1.40;;
41657;SDS011;27347;57.132;-2.084;2022-07-23T04:34:32;2.97;;;1.60;;
41657;SDS011;27347;57.132;-2.084;2022-07-23T04:36:57;3.20;;;1.73;;
41657;SDS011;27347;57.132;-2.084;2022-07-23T04:39:22;2.15;;;1.20;;
41657;SDS011;27347;57.132;-2.084;2022-07-23T04:41:48;1.50;;;1.40;;
41657;SDS011;27347;57.132;-2.084;2022-07-23T04:44:13;3.42;;;1.58;;
41657;SDS011;27347;57.132;-2.084;2022-07-23T04:46:39;3.17;;;1.77;;
41657;SDS011;27347;57.132;-2.084;2022-07-23T04:49:04;2.17;;;1.50;;
41657;SDS011;27347;57.132;-2.084;2022-07-23T04:51:29;1.77;;;1.55;;
41657;SDS011;27347;57.132;-2.084;2022-07-23T04:53:55;1.33;;;1.23;;
41657;SDS011;27347;57.132;-2.084;2022-07-23T04:56:20;2.33;;;1.73;;
41657;SDS011;27347;57.132;-2.084;2022-07-23T04:58:46;2.00;;;1.60;;
41657;SDS011;27347;57.132;-2.084;2022-07-23T05:01:12;2.38;;;1.70;;
41657;SDS011;27347;57.132;-2.084;2022-07-23T05:03:37;3.38;;;1.42;;
41657;SDS011;27347;57.132;-2.084;2022-07-23T05:06:02;3.22;;;2.15;;
41657;SDS011;27347;57.132;-2.084;2022-07-23T05:08:28;2.25;;;1.40;;
41657;SDS011;27347;57.132;-2.084;2022-07-23T05:10:54;1.67;;;1.40;;
41657;SDS011;27347;57.132;-2.084;2022-07-23T05:13:19;3.63;;;1.45;;
41657;SDS011;27347;57.132;-2.084;2022-07-23T05:15:44;3.28;;;1.50;;
41657;SDS011;27347;57.132;-2.084;2022-07-23T05:18:10;6.25;;;1.60;;
41657;SDS011;27347;57.132;-2.084;2022-07-23T05:20:36;2.75;;;1.80;;
41657;SDS011;27347;57.132;-2.084;2022-07-23T05:23:01;1.95;;;1.30;;
41657;SDS011;27347;57.132;-2.084;2022-07-23T05:25:27;3.75;;;1.40;;
41657;SDS011;27347;57.132;-2.084;2022-07-23T05:27:53;1.48;;;1.30;;
41657;SDS011;27347;57.132;-2.084;2022-07-23T05:30:18;4.32;;;1.45;;
41657;SDS011;27347;57.132;-2.084;2022-07-23T05:32:43;4.50;;;1.48;;
41657;SDS011;27347;57.132;-2.084;2022-07-23T05:35:09;2.33;;;1.20;;
41657;SDS011;27347;57.132;-2.084;2022-07-23T05:37:35;1.77;;;1.20;;
41657;SDS011;27347;57.132;-2.084;2022-07-23T05:40:04;3.85;;;1.55;;
41657;SDS011;27347;57.132;-2.084;2022-07-23T05:42:32;2.50;;;1.50;;
41657;SDS011;27347;57.132;-2.084;2022-07-23T05:45:01;2.03;;;1.48;;
41657;SDS011;27347;57.132;-2.084;2022-07-23T05:47:28;2.42;;;1.25;;
41657;SDS011;27347;57.132;-2.084;2022-07-23T05:49:53;1.50;;;1.10;;
41657;SDS011;27347;57.132;-2.084;2022-07-23T05:52:18;2.35;;;1.25;;
41657;SDS011;27347;57.132;-2.084;2022-07-23T05:54:44;3.15;;;1.40;;
41657;SDS011;27347;57.132;-2.084;2022-07-23T05:57:09;3.13;;;1.70;;
41657;SDS011;27347;57.132;-2.084;2022-07-23T05:59:34;4.32;;;1.25;;
41657;SDS011;27347;57.132;-2.084;2022-07-23T06:02:00;2.38;;;1.30;;
41657;SDS011;27347;57.132;-2.084;2022-07-23T06:04:25;2.50;;;1.05;;
41657;SDS011;27347;57.132;-2.084;2022-07-23T06:06:51;1.52;;;1.20;;
41657;SDS011;27347;57.132;-2.084;2022-07-23T06:09:16;2.65;;;1.20;;
41657;SDS011;27347;57.132;-2.084;2022-07-23T06:11:42;2.28;;;1.30;;
41657;SDS011;27347;57.132;-2.084;2022-07-23T06:14:07;4.57;;;1.52;;
41657;SDS011;27347;57.132;-2.084;2022-07-23T06:16:32;6.82;;;1.60;;
41657;SDS011;27347;57.132;-2.084;2022-07-23T06:18:58;4.85;;;1.52;;
41657;SDS011;27347;57.132;-2.084;2022-07-23T06:21:23;1.75;;;1.30;;
41657;SDS011;27347;57.132;-2.084;2022-07-23T06:23:49;3.20;;;1.27;;
41657;SDS011;27347;57.132;-2.084;2022-07-23T06:26:14;2.25;;;1.30;;
41657;SDS011;27347;57.132;-2.084;2022-07-23T06:28:39;2.78;;;1.40;;
41657;SDS011;27347;57.132;-2.084;2022-07-23T06:31:05;2.75;;;1.30;;
41657;SDS011;27347;57.132;-2.084;2022-07-23T06:33:30;2.45;;;1.42;;
41657;SDS011;27347;57.132;-2.084;2022-07-23T06:35:56;2.67;;;1.20;;
41657;SDS011;27347;57.132;-2.084;2022-07-23T06:38:21;5.50;;;2.03;;
41657;SDS011;27347;57.132;-2.084;2022-07-23T06:40:46;3.88;;;1.30;;
41657;SDS011;27347;57.132;-2.084;2022-07-23T06:43:12;5.88;;;1.42;;
41657;SDS011;27347;57.132;-2.084;2022-07-23T06:45:37;1.65;;;1.10;;
41657;SDS011;27347;57.132;-2.084;2022-07-23T06:48:03;2.38;;;1.10;;
41657;SDS011;27347;57.132;-2.084;2022-07-23T06:50:28;3.40;;;1.60;;
41657;SDS011;27347;57.132;-2.084;2022-07-23T06:52:54;4.72;;;1.60;;
41657;SDS011;27347;57.132;-2.084;2022-07-23T06:55:19;2.10;;;1.30;;
41657;SDS011;27347;57.132;-2.084;2022-07-23T06:57:45;3.15;;;1.27;;
41657;SDS011;27347;57.132;-2.084;2022-07-23T07:00:10;3.42;;;1.08;;
41657;SDS011;27347;57.132;-2.084;2022-07-23T07:02:36;2.13;;;1.27;;
41657;SDS011;27347;57.132;-2.084;2022-07-23T07:05:02;2.55;;;1.38;;
41657;SDS011;27347;57.132;-2.084;2022-07-23T07:07:28;2.22;;;1.42;;
41657;SDS011;27347;57.132;-2.084;2022-07-23T07:09:53;4.82;;;1.83;;
41657;SDS011;27347;57.132;-2.084;2022-07-23T07:12:18;1.50;;;1.27;;
41657;SDS011;27347;57.132;-2.084;2022-07-23T07:14:44;2.83;;;1.50;;
41657;SDS011;27347;57.132;-2.084;2022-07-23T07:17:09;1.83;;;1.23;;
41657;SDS011;27347;57.132;-2.084;2022-07-23T07:19:36;4.40;;;1.63;;
41657;SDS011;27347;57.132;-2.084;2022-07-23T07:22:01;2.65;;;1.42;;
41657;SDS011;27347;57.132;-2.084;2022-07-23T07:24:27;2.40;;;1.25;;
41657;SDS011;27347;57.132;-2.084;2022-07-23T07:26:52;4.38;;;1.35;;
41657;SDS011;27347;57.132;-2.084;2022-07-23T07:29:18;1.50;;;1.20;;
41657;SDS011;27347;57.132;-2.084;2022-07-23T07:31:43;4.03;;;1.23;;
41657;SDS011;27347;57.132;-2.084;2022-07-23T07:34:09;3.25;;;1.25;;
41657;SDS011;27347;57.132;-2.084;2022-07-23T07:36:34;4.25;;;1.48;;
41657;SDS011;27347;57.132;-2.084;2022-07-23T07:39:02;4.43;;;1.70;;
41657;SDS011;27347;57.132;-2.084;2022-07-23T07:41:28;2.38;;;1.25;;
41657;SDS011;27347;57.132;-2.084;2022-07-23T07:43:54;1.60;;;1.23;;
41657;SDS011;27347;57.132;-2.084;2022-07-23T07:46:19;4.32;;;1.55;;
41657;SDS011;27347;57.132;-2.084;2022-07-23T07:48:45;2.65;;;1.30;;
41657;SDS011;27347;57.132;-2.084;2022-07-23T07:51:10;6.00;;;1.75;;
41657;SDS011;27347;57.132;-2.084;2022-07-23T07:53:36;2.58;;;1.27;;
41657;SDS011;27347;57.132;-2.084;2022-07-23T07:56:01;4.90;;;1.42;;
41657;SDS011;27347;57.132;-2.084;2022-07-23T07:58:26;3.53;;;1.52;;
41657;SDS011;27347;57.132;-2.084;2022-07-23T08:00:52;1.25;;;1.05;;
41657;SDS011;27347;57.132;-2.084;2022-07-23T08:03:17;3.33;;;1.33;;
41657;SDS011;27347;57.132;-2.084;2022-07-23T08:05:43;2.28;;;1.45;;
41657;SDS011;27347;57.132;-2.084;2022-07-23T08:08:08;2.55;;;1.63;;
41657;SDS011;27347;57.132;-2.084;2022-07-23T08:10:39;3.10;;;2.00;;
41657;SDS011;27347;57.132;-2.084;2022-07-23T08:13:05;2.17;;;1.50;;
41657;SDS011;27347;57.132;-2.084;2022-07-23T08:15:30;1.65;;;1.48;;
41657;SDS011;27347;57.132;-2.084;2022-07-23T08:17:56;4.57;;;1.45;;
41657;SDS011;27347;57.132;-2.084;2022-07-23T08:20:23;4.65;;;1.92;;
41657;SDS011;27347;57.132;-2.084;2022-07-23T08:22:52;4.18;;;1.67;;
41657;SDS011;27347;57.132;-2.084;2022-07-23T08:25:20;4.60;;;1.98;;
41657;SDS011;27347;57.132;-2.084;2022-07-23T08:27:47;5.47;;;1.60;;
41657;SDS011;27347;57.132;-2.084;2022-07-23T08:30:14;6.05;;;1.88;;
41657;SDS011;27347;57.132;-2.084;2022-07-23T08:35:22;4.93;;;1.60;;
41657;SDS011;27347;57.132;-2.084;2022-07-23T08:37:58;4.18;;;1.50;;
41657;SDS011;27347;57.132;-2.084;2022-07-23T08:40:29;5.32;;;2.15;;
41657;SDS011;27347;57.132;-2.084;2022-07-23T08:42:56;4.18;;;1.52;;
41657;SDS011;27347;57.132;-2.084;2022-07-23T08:45:22;4.50;;;1.70;;
41657;SDS011;27347;57.132;-2.084;2022-07-23T08:47:50;3.83;;;1.67;;
41657;SDS011;27347;57.132;-2.084;2022-07-23T08:50:17;9.07;;;2.35;;
41657;SDS011;27347;57.132;-2.084;2022-07-23T08:52:43;4.45;;;1.60;;
41657;SDS011;27347;57.132;-2.084;2022-07-23T08:55:09;3.03;;;1.83;;
41657;SDS011;27347;57.132;-2.084;2022-07-23T08:57:35;7.78;;;2.28;;
41657;SDS011;27347;57.132;-2.084;2022-07-23T09:00:00;6.55;;;2.00;;
41657;SDS011;27347;57.132;-2.084;2022-07-23T09:02:26;5.95;;;1.83;;
41657;SDS011;27347;57.132;-2.084;2022-07-23T09:04:51;7.93;;;2.05;;
41657;SDS011;27347;57.132;-2.084;2022-07-23T09:07:17;3.70;;;1.70;;
41657;SDS011;27347;57.132;-2.084;2022-07-23T09:09:43;5.93;;;1.92;;
41657;SDS011;27347;57.132;-2.084;2022-07-23T09:12:09;5.30;;;2.05;;
41657;SDS011;27347;57.132;-2.084;2022-07-23T09:14:43;5.80;;;2.28;;
41657;SDS011;27347;57.132;-2.084;2022-07-23T09:17:16;5.75;;;1.92;;
41657;SDS011;27347;57.132;-2.084;2022-07-23T09:19:43;4.65;;;2.08;;
41657;SDS011;27347;57.132;-2.084;2022-07-23T09:22:19;3.58;;;1.90;;
41657;SDS011;27347;57.132;-2.084;2022-07-23T09:30:25;3.47;;;2.03;;
41657;SDS011;27347;57.132;-2.084;2022-07-23T09:33:10;3.90;;;2.20;;
41657;SDS011;27347;57.132;-2.084;2022-07-23T09:38:19;7.78;;;3.03;;
41657;SDS011;27347;57.132;-2.084;2022-07-23T09:40:46;6.78;;;2.20;;
41657;SDS011;27347;57.132;-2.084;2022-07-23T09:43:13;7.43;;;3.17;;
41657;SDS011;27347;57.132;-2.084;2022-07-23T09:45:52;4.65;;;1.85;;
41657;SDS011;27347;57.132;-2.084;2022-07-23T09:48:17;8.13;;;2.92;;
41657;SDS011;27347;57.132;-2.084;2022-07-23T09:50:43;6.00;;;2.33;;
41657;SDS011;27347;57.132;-2.084;2022-07-23T09:53:09;5.88;;;2.42;;
41657;SDS011;27347;57.132;-2.084;2022-07-23T09:55:36;3.95;;;2.20;;
41657;SDS011;27347;57.132;-2.084;2022-07-23T09:58:03;6.90;;;2.50;;
41657;SDS011;27347;57.132;-2.084;2022-07-23T10:00:29;4.43;;;1.95;;
41657;SDS011;27347;57.132;-2.084;2022-07-23T10:02:56;6.75;;;2.13;;
41657;SDS011;27347;57.132;-2.084;2022-07-23T10:05:22;8.10;;;2.53;;
41657;SDS011;27347;57.132;-2.084;2022-07-23T10:07:49;6.25;;;2.28;;
41657;SDS011;27347;57.132;-2.084;2022-07-23T10:10:16;6.07;;;2.13;;
41657;SDS011;27347;57.132;-2.084;2022-07-23T10:12:45;3.05;;;1.85;;
41657;SDS011;27347;57.132;-2.084;2022-07-23T10:15:16;3.30;;;1.77;;
41657;SDS011;27347;57.132;-2.084;2022-07-23T10:17:42;4.15;;;1.90;;
41657;SDS011;27347;57.132;-2.084;2022-07-23T10:20:08;7.22;;;2.20;;
41657;SDS011;27347;57.132;-2.084;2022-07-23T10:22:35;3.30;;;1.95;;
41657;SDS011;27347;57.132;-2.084;2022-07-23T10:39:08;7.15;;;2.05;;
41657;SDS011;27347;57.132;-2.084;2022-07-23T10:41:39;2.72;;;1.67;;
41657;SDS011;27347;57.132;-2.084;2022-07-23T10:44:16;4.57;;;2.05;;
41657;SDS011;27347;57.132;-2.084;2022-07-23T10:47:03;7.72;;;2.20;;
41657;SDS011;27347;57.132;-2.084;2022-07-23T10:49:44;3.85;;;2.00;;
41657;SDS011;27347;57.132;-2.084;2022-07-23T10:54:38;4.72;;;1.50;;
41657;SDS011;27347;57.132;-2.084;2022-07-23T10:57:05;8.57;;;2.15;;
41657;SDS011;27347;57.132;-2.084;2022-07-23T11:00:03;4.57;;;1.75;;
41657;SDS011;27347;57.132;-2.084;2022-07-23T11:02:40;5.72;;;1.75;;
41657;SDS011;27347;57.132;-2.084;2022-07-23T11:05:07;4.50;;;1.73;;
41657;SDS011;27347;57.132;-2.084;2022-07-23T11:07:34;6.22;;;2.03;;
41657;SDS011;27347;57.132;-2.084;2022-07-23T11:10:00;6.93;;;2.03;;
41657;SDS011;27347;57.132;-2.084;2022-07-23T11:15:08;5.95;;;1.73;;
41657;SDS011;27347;57.132;-2.084;2022-07-23T11:25:11;4.70;;;1.63;;
41657;SDS011;27347;57.132;-2.084;2022-07-23T11:27:37;4.43;;;1.65;;
41657;SDS011;27347;57.132;-2.084;2022-07-23T11:30:04;5.60;;;2.10;;
41657;SDS011;27347;57.132;-2.084;2022-07-23T11:32:32;7.72;;;2.60;;
41657;SDS011;27347;57.132;-2.084;2022-07-23T11:35:02;5.93;;;2.70;;
41657;SDS011;27347;57.132;-2.084;2022-07-23T11:40:04;5.88;;;2.22;;
41657;SDS011;27347;57.132;-2.084;2022-07-23T11:42:33;4.47;;;2.45;;
41657;SDS011;27347;57.132;-2.084;2022-07-23T11:44:59;8.68;;;2.40;;
41657;SDS011;27347;57.132;-2.084;2022-07-23T11:47:26;3.88;;;2.28;;
41657;SDS011;27347;57.132;-2.084;2022-07-23T11:49:52;13.15;;;3.85;;
41657;SDS011;27347;57.132;-2.084;2022-07-23T11:52:19;5.60;;;2.63;;
41657;SDS011;27347;57.132;-2.084;2022-07-23T11:54:48;6.68;;;2.70;;
41657;SDS011;27347;57.132;-2.084;2022-07-23T11:57:14;6.40;;;2.75;;
41657;SDS011;27347;57.132;-2.084;2022-07-23T11:59:40;5.70;;;2.67;;
41657;SDS011;27347;57.132;-2.084;2022-07-23T12:02:06;5.80;;;2.92;;
41657;SDS011;27347;57.132;-2.084;2022-07-23T12:09:56;4.55;;;2.60;;
41657;SDS011;27347;57.132;-2.084;2022-07-23T12:12:23;5.63;;;2.92;;
41657;SDS011;27347;57.132;-2.084;2022-07-23T12:14:50;5.68;;;2.58;;
41657;SDS011;27347;57.132;-2.084;2022-07-23T12:17:16;4.53;;;3.05;;
41657;SDS011;27347;57.132;-2.084;2022-07-23T12:19:42;7.63;;;3.20;;
41657;SDS011;27347;57.132;-2.084;2022-07-23T12:22:07;5.90;;;3.17;;
41657;SDS011;27347;57.132;-2.084;2022-07-23T12:27:22;3.72;;;2.80;;
41657;SDS011;27347;57.132;-2.084;2022-07-23T12:29:48;4.57;;;3.20;;
41657;SDS011;27347;57.132;-2.084;2022-07-23T12:32:24;5.65;;;3.17;;
41657;SDS011;27347;57.132;-2.084;2022-07-23T12:35:01;4.03;;;2.90;;
41657;SDS011;27347;57.132;-2.084;2022-07-23T12:37:32;6.13;;;4.00;;
41657;SDS011;27347;57.132;-2.084;2022-07-23T12:40:18;6.65;;;3.20;;
41657;SDS011;27347;57.132;-2.084;2022-07-23T12:42:58;6.07;;;3.20;;
41657;SDS011;27347;57.132;-2.084;2022-07-23T12:48:14;8.98;;;3.17;;
41657;SDS011;27347;57.132;-2.084;2022-07-23T12:50:48;8.20;;;3.95;;
41657;SDS011;27347;57.132;-2.084;2022-07-23T12:53:18;9.60;;;3.55;;
41657;SDS011;27347;57.132;-2.084;2022-07-23T12:55:49;5.60;;;3.65;;
41657;SDS011;27347;57.132;-2.084;2022-07-23T12:58:17;5.68;;;3.92;;
41657;SDS011;27347;57.132;-2.084;2022-07-23T13:00:57;6.93;;;4.18;;
41657;SDS011;27347;57.132;-2.084;2022-07-23T13:03:23;4.88;;;2.95;;
41657;SDS011;27347;57.132;-2.084;2022-07-23T13:05:53;5.50;;;3.40;;
41657;SDS011;27347;57.132;-2.084;2022-07-23T13:08:19;7.68;;;3.83;;
41657;SDS011;27347;57.132;-2.084;2022-07-23T13:10:45;5.68;;;3.63;;
41657;SDS011;27347;57.132;-2.084;2022-07-23T13:13:13;7.15;;;4.05;;
41657;SDS011;27347;57.132;-2.084;2022-07-23T13:15:39;11.38;;;4.70;;
41657;SDS011;27347;57.132;-2.084;2022-07-23T13:18:04;7.90;;;4.45;;
41657;SDS011;27347;57.132;-2.084;2022-07-23T13:20:31;8.70;;;4.45;;
41657;SDS011;27347;57.132;-2.084;2022-07-23T13:22:57;6.43;;;3.97;;
41657;SDS011;27347;57.132;-2.084;2022-07-23T13:25:23;9.32;;;4.78;;
41657;SDS011;27347;57.132;-2.084;2022-07-23T13:27:48;7.78;;;3.75;;
41657;SDS011;27347;57.132;-2.084;2022-07-23T13:30:13;4.88;;;3.75;;
41657;SDS011;27347;57.132;-2.084;2022-07-23T13:32:40;6.82;;;4.35;;
41657;SDS011;27347;57.132;-2.084;2022-07-23T13:35:05;4.80;;;3.53;;
41657;SDS011;27347;57.132;-2.084;2022-07-23T13:37:31;8.10;;;3.95;;
41657;SDS011;27347;57.132;-2.084;2022-07-23T13:39:56;6.20;;;3.63;;
41657;SDS011;27347;57.132;-2.084;2022-07-23T13:42:22;6.45;;;3.70;;
41657;SDS011;27347;57.132;-2.084;2022-07-23T13:44:47;9.50;;;4.05;;
41657;SDS011;27347;57.132;-2.084;2022-07-23T13:47:12;5.32;;;3.88;;
41657;SDS011;27347;57.132;-2.084;2022-07-23T13:49:38;8.40;;;4.70;;
41657;SDS011;27347;57.132;-2.084;2022-07-23T13:52:03;7.47;;;4.35;;
41657;SDS011;27347;57.132;-2.084;2022-07-23T13:54:29;10.95;;;5.38;;
41657;SDS011;27347;57.132;-2.084;2022-07-23T13:56:55;7.32;;;4.45;;
41657;SDS011;27347;57.132;-2.084;2022-07-23T13:59:20;5.25;;;4.50;;
41657;SDS011;27347;57.132;-2.084;2022-07-23T14:01:46;9.02;;;4.28;;
41657;SDS011;27347;57.132;-2.084;2022-07-23T14:04:12;7.78;;;4.43;;
41657;SDS011;27347;57.132;-2.084;2022-07-23T14:06:37;8.45;;;4.18;;
41657;SDS011;27347;57.132;-2.084;2022-07-23T14:09:02;6.93;;;3.55;;
41657;SDS011;27347;57.132;-2.084;2022-07-23T14:11:28;7.65;;;4.03;;
41657;SDS011;27347;57.132;-2.084;2022-07-23T14:13:55;7.30;;;3.65;;
41657;SDS011;27347;57.132;-2.084;2022-07-23T14:16:21;4.28;;;3.15;;
41657;SDS011;27347;57.132;-2.084;2022-07-23T14:18:47;5.47;;;4.50;;
41657;SDS011;27347;57.132;-2.084;2022-07-23T14:21:12;4.25;;;3.58;;
41657;SDS011;27347;57.132;-2.084;2022-07-23T14:23:38;7.40;;;4.57;;
41657;SDS011;27347;57.132;-2.084;2022-07-23T14:26:03;6.85;;;4.80;;
41657;SDS011;27347;57.132;-2.084;2022-07-23T14:28:28;6.38;;;4.13;;
41657;SDS011;27347;57.132;-2.084;2022-07-23T14:30:54;6.85;;;4.60;;
41657;SDS011;27347;57.132;-2.084;2022-07-23T14:33:19;5.22;;;3.88;;
41657;SDS011;27347;57.132;-2.084;2022-07-23T14:35:45;6.20;;;4.57;;
41657;SDS011;27347;57.132;-2.084;2022-07-23T14:38:11;7.63;;;5.22;;
41657;SDS011;27347;57.132;-2.084;2022-07-23T14:40:36;9.90;;;5.35;;
41657;SDS011;27347;57.132;-2.084;2022-07-23T14:43:02;9.80;;;5.25;;
41657;SDS011;27347;57.132;-2.084;2022-07-23T14:45:27;9.50;;;5.90;;
41657;SDS011;27347;57.132;-2.084;2022-07-23T14:47:55;8.30;;;5.10;;
41657;SDS011;27347;57.132;-2.084;2022-07-23T14:50:21;10.98;;;6.25;;
41657;SDS011;27347;57.132;-2.084;2022-07-23T14:52:46;13.95;;;6.60;;
41657;SDS011;27347;57.132;-2.084;2022-07-23T14:55:11;13.00;;;6.95;;
41657;SDS011;27347;57.132;-2.084;2022-07-23T14:57:37;8.02;;;6.53;;
41657;SDS011;27347;57.132;-2.084;2022-07-23T15:00:03;9.00;;;6.47;;
41657;SDS011;27347;57.132;-2.084;2022-07-23T15:02:29;7.95;;;5.25;;
41657;SDS011;27347;57.132;-2.084;2022-07-23T15:04:55;7.45;;;5.45;;
41657;SDS011;27347;57.132;-2.084;2022-07-23T15:07:23;6.38;;;4.65;;
41657;SDS011;27347;57.132;-2.084;2022-07-23T15:09:48;8.55;;;4.95;;
41657;SDS011;27347;57.132;-2.084;2022-07-23T15:12:14;10.63;;;6.13;;
41657;SDS011;27347;57.132;-2.084;2022-07-23T15:14:39;6.35;;;4.63;;
41657;SDS011;27347;57.132;-2.084;2022-07-23T15:17:04;13.40;;;5.93;;
41657;SDS011;27347;57.132;-2.084;2022-07-23T15:19:31;7.68;;;5.57;;
41657;SDS011;27347;57.132;-2.084;2022-07-23T15:21:56;7.82;;;4.60;;